createdAt,value
2023-05-12T00:00:13.010Z,9.75
2023-05-12T00:02:40.033Z,9.50
2023-05-12T00:05:07.295Z,8.70
2023-05-12T00:07:34.388Z,8.80
2023-05-12T00:10:01.241Z,8.15
2023-05-12T00:12:27.983Z,7.35
2023-05-12T00:14:55.120Z,7.90
2023-05-12T00:17:22.259Z,7.38
2023-05-12T00:19:49.001Z,6.63
2023-05-12T00:22:16.871Z,7.25
2023-05-12T00:24:43.612Z,6.55
2023-05-12T00:27:10.356Z,6.43
2023-05-12T00:29:37.106Z,6.72
2023-05-12T00:32:04.290Z,7.50
2023-05-12T00:34:31.106Z,7.20
2023-05-12T00:36:59.905Z,7.13
2023-05-12T00:39:26.624Z,6.93
2023-05-12T00:41:58.121Z,7.00
2023-05-12T00:44:24.908Z,6.43
2023-05-12T00:46:52.672Z,7.15
2023-05-12T00:49:20.903Z,7.47
2023-05-12T00:51:47.771Z,7.43
2023-05-12T00:54:14.509Z,7.65
2023-05-12T00:56:41.395Z,6.80
2023-05-12T00:59:08.856Z,7.20
2023-05-12T01:01:36.222Z,6.93
2023-05-12T01:04:03.603Z,7.50
2023-05-12T01:06:42.711Z,7.95
2023-05-12T01:09:10.002Z,7.05
2023-05-12T01:11:37.517Z,7.35
2023-05-12T01:14:04.342Z,7.60
2023-05-12T01:16:37.103Z,6.90
2023-05-12T01:19:07.617Z,6.82
2023-05-12T01:21:34.440Z,6.88
2023-05-12T01:24:09.128Z,6.63
2023-05-12T01:26:36.038Z,6.72
2023-05-12T01:29:04.456Z,6.45
2023-05-12T01:31:31.757Z,6.95
2023-05-12T01:34:18.449Z,7.15
2023-05-12T01:36:45.184Z,6.88
2023-05-12T01:39:12.581Z,7.05
2023-05-12T01:41:39.326Z,6.60
2023-05-12T01:44:06.146Z,7.30
2023-05-12T01:46:32.886Z,7.28
2023-05-12T01:48:59.597Z,7.80
2023-05-12T01:51:26.617Z,6.95
2023-05-12T01:53:53.310Z,7.18
2023-05-12T01:56:21.680Z,6.30
2023-05-12T01:58:48.389Z,6.70
2023-05-12T02:01:15.311Z,6.43
2023-05-12T02:03:42.176Z,6.20
2023-05-12T02:06:08.964Z,5.40
2023-05-12T02:08:35.987Z,5.35
2023-05-12T02:11:09.725Z,5.38
2023-05-12T02:13:36.518Z,5.32
2023-05-12T02:16:03.750Z,4.30
2023-05-12T02:18:30.625Z,3.90
2023-05-12T02:20:57.489Z,3.45
2023-05-12T02:23:24.312Z,3.50
2023-05-12T02:25:51.022Z,3.47
2023-05-12T02:28:17.736Z,4.15
2023-05-12T02:30:49.723Z,4.20
2023-05-12T02:35:45.265Z,3.60
2023-05-12T02:38:13.026Z,3.42
2023-05-12T02:40:40.055Z,2.60
2023-05-12T02:43:07.175Z,2.15
2023-05-12T02:45:34.860Z,1.98
2023-05-12T02:48:01.709Z,1.60
2023-05-12T02:50:28.481Z,1.65
2023-05-12T02:52:55.188Z,1.75
2023-05-12T02:55:21.890Z,1.92
2023-05-12T02:57:48.715Z,2.05
2023-05-12T03:00:15.825Z,1.77
2023-05-12T03:02:43.113Z,1.33
2023-05-12T03:05:10.137Z,1.17
2023-05-12T03:07:36.940Z,1.10
2023-05-12T03:10:04.013Z,0.70
2023-05-12T03:12:30.815Z,0.80
2023-05-12T03:14:57.652Z,1.20
2023-05-12T03:17:24.476Z,1.00
2023-05-12T03:19:51.302Z,1.10
2023-05-12T03:22:18.237Z,0.90
2023-05-12T03:24:44.928Z,0.98
2023-05-12T03:27:12.411Z,1.13
2023-05-12T03:29:39.195Z,1.42
2023-05-12T03:32:06.384Z,1.50
2023-05-12T03:34:33.076Z,1.67
2023-05-12T03:37:00.810Z,1.50
2023-05-12T03:39:27.618Z,1.85
2023-05-12T03:41:54.320Z,1.77
2023-05-12T03:44:21.148Z,1.83
2023-05-12T03:46:47.982Z,2.03
2023-05-12T03:49:14.825Z,1.77
2023-05-12T03:51:41.557Z,1.85
2023-05-12T03:54:08.322Z,1.77
2023-05-12T03:56:35.058Z,1.80
2023-05-12T04:23:54.229Z,2.25
2023-05-12T04:26:21.945Z,3.00
2023-05-12T04:28:48.745Z,2.70
2023-05-12T04:31:15.581Z,2.78
2023-05-12T04:33:42.293Z,2.55
2023-05-12T04:36:09.384Z,3.03
2023-05-12T04:38:36.196Z,3.55
2023-05-12T04:41:03.371Z,3.38
2023-05-12T04:46:03.010Z,3.20
2023-05-12T04:48:29.760Z,3.85
2023-05-12T04:50:59.546Z,3.60
2023-05-12T04:53:27.229Z,3.90
2023-05-12T04:55:54.021Z,3.40
2023-05-12T04:58:20.813Z,3.78
2023-05-12T05:00:47.692Z,3.40
2023-05-12T05:03:14.541Z,3.47
2023-05-12T05:05:41.338Z,3.88
2023-05-12T05:08:08.056Z,3.25
2023-05-12T05:10:34.790Z,3.88
2023-05-12T05:13:01.516Z,3.85
2023-05-12T05:15:28.292Z,4.13
2023-05-12T05:17:55.184Z,3.92
2023-05-12T05:20:27.958Z,4.40
2023-05-12T05:22:55.809Z,4.22
2023-05-12T05:25:22.847Z,4.13
2023-05-12T05:27:49.660Z,4.50
2023-05-12T05:30:16.779Z,4.40
2023-05-12T05:32:43.793Z,4.38
2023-05-12T05:35:10.611Z,4.22
2023-05-12T05:37:37.571Z,3.88
2023-05-12T05:40:05.061Z,4.82
2023-05-12T05:42:31.945Z,4.15
2023-05-12T05:44:58.678Z,4.10
2023-05-12T05:47:25.683Z,4.60
2023-05-12T05:49:52.685Z,3.80
2023-05-12T05:52:19.610Z,4.40
2023-05-12T05:54:46.391Z,3.78
2023-05-12T05:57:13.170Z,3.67
2023-05-12T05:59:39.960Z,3.40
2023-05-12T06:02:07.159Z,3.50
2023-05-12T06:04:33.913Z,3.72
2023-05-12T06:07:00.613Z,4.05
2023-05-12T06:09:27.339Z,3.55
2023-05-12T06:11:54.099Z,3.45
2023-05-12T06:14:20.862Z,3.42
2023-05-12T06:16:47.677Z,3.75
2023-05-12T06:19:15.560Z,3.85
2023-05-12T06:21:42.318Z,3.60
2023-05-12T06:24:09.080Z,4.03
2023-05-12T06:26:37.360Z,4.07
2023-05-12T06:29:07.722Z,4.05
2023-05-12T06:31:35.972Z,3.88
2023-05-12T06:34:03.080Z,3.47
2023-05-12T06:36:30.287Z,2.92
2023-05-12T06:38:57.208Z,3.03
2023-05-12T06:41:25.060Z,3.05
2023-05-12T06:43:52.380Z,2.70
2023-05-12T06:46:19.370Z,2.70
2023-05-12T06:48:46.379Z,2.30
2023-05-12T06:51:14.666Z,2.38
2023-05-12T06:53:41.658Z,2.40
2023-05-12T06:56:08.768Z,2.40
2023-05-12T06:58:36.984Z,2.63
2023-05-12T07:01:03.997Z,2.33
2023-05-12T07:03:34.064Z,2.38
2023-05-12T07:06:01.153Z,2.65
2023-05-12T07:08:27.971Z,2.67
2023-05-12T07:10:54.840Z,2.20
2023-05-12T07:13:22.370Z,2.53
2023-05-12T07:15:49.243Z,2.30
2023-05-12T07:18:16.079Z,2.75
2023-05-12T07:20:43.437Z,2.75
2023-05-12T07:23:10.345Z,2.25
2023-05-12T07:25:37.236Z,2.80
2023-05-12T07:28:04.186Z,2.60
2023-05-12T07:30:31.042Z,2.60
2023-05-12T07:32:57.872Z,2.35
2023-05-12T07:35:24.683Z,3.03
2023-05-12T07:37:51.613Z,2.60
2023-05-12T07:40:18.447Z,2.88
2023-05-12T07:42:45.420Z,2.47
2023-05-12T07:45:12.245Z,2.88
2023-05-12T07:47:39.290Z,2.50
2023-05-12T07:50:07.092Z,2.75
2023-05-12T07:52:34.061Z,2.50
2023-05-12T07:55:00.801Z,2.42
2023-05-12T07:57:27.578Z,2.50
2023-05-12T07:59:54.350Z,2.25
2023-05-12T08:02:21.162Z,2.20
2023-05-12T08:04:47.910Z,2.72
2023-05-12T08:07:15.656Z,2.55
2023-05-12T08:09:42.413Z,2.47
2023-05-12T08:12:09.279Z,2.42
2023-05-12T08:14:36.320Z,2.47
2023-05-12T08:17:03.179Z,2.10
2023-05-12T08:19:30.002Z,2.25
2023-05-12T08:21:56.952Z,2.40
2023-05-12T08:24:23.732Z,2.50
2023-05-12T08:26:50.555Z,2.20
2023-05-12T08:29:17.303Z,2.30
2023-05-12T08:31:44.110Z,2.17
2023-05-12T08:34:11.393Z,2.20
2023-05-12T08:36:40.733Z,2.40
2023-05-12T08:39:10.135Z,2.40
2023-05-12T08:41:44.995Z,1.98
2023-05-12T08:44:12.987Z,2.03
2023-05-12T08:46:40.944Z,2.15
2023-05-12T08:49:12.399Z,1.88
2023-05-12T08:54:10.536Z,1.88
2023-05-12T08:59:12.323Z,1.90
2023-05-12T09:01:42.945Z,1.77
2023-05-12T09:04:10.246Z,1.65
2023-05-12T09:06:37.179Z,1.80
2023-05-12T09:09:04.028Z,1.73
2023-05-12T09:11:30.832Z,1.95
2023-05-12T09:14:06.996Z,1.58
2023-05-12T09:16:40.233Z,1.75
2023-05-12T09:19:07.418Z,1.80
2023-05-12T09:21:34.827Z,1.40
2023-05-12T09:24:08.808Z,1.60
2023-05-12T09:26:45.263Z,1.33
2023-05-12T09:29:20.769Z,1.60
2023-05-12T09:31:58.550Z,1.30
2023-05-12T09:34:36.985Z,1.30
2023-05-12T09:37:06.644Z,1.40
2023-05-12T09:39:34.406Z,1.30
2023-05-12T09:42:01.318Z,1.58
2023-05-12T09:44:30.781Z,1.42
2023-05-12T09:47:07.200Z,1.40
2023-05-12T09:49:34.030Z,1.52
2023-05-12T09:52:00.774Z,1.35
2023-05-12T09:54:32.198Z,1.35
2023-05-12T09:59:32.529Z,1.55
2023-05-12T10:02:05.872Z,1.38
2023-05-12T10:04:51.350Z,1.33
2023-05-12T10:07:22.592Z,1.23
2023-05-12T10:09:49.806Z,1.30
2023-05-12T10:12:17.210Z,1.50
2023-05-12T10:14:45.524Z,1.27
2023-05-12T10:17:13.265Z,1.45
2023-05-12T10:19:41.995Z,1.20
2023-05-12T10:22:11.355Z,1.58
2023-05-12T10:24:39.519Z,1.60
2023-05-12T10:27:07.281Z,1.30
2023-05-12T10:29:35.068Z,1.10
2023-05-12T10:32:01.858Z,1.23
2023-05-12T10:34:37.153Z,1.50
2023-05-12T10:37:11.486Z,1.60
2023-05-12T10:39:48.360Z,1.35
2023-05-12T10:42:24.996Z,1.45
2023-05-12T10:44:53.717Z,1.30
2023-05-12T10:47:26.850Z,1.25
2023-05-12T10:49:59.595Z,1.30
2023-05-12T10:52:26.427Z,1.70
2023-05-12T10:55:01.803Z,1.60
2023-05-12T10:57:30.786Z,1.30
2023-05-12T11:00:00.308Z,1.35
2023-05-12T11:02:34.952Z,1.92
2023-05-12T11:05:10.524Z,1.55
2023-05-12T11:07:37.992Z,1.75
2023-05-12T11:10:06.353Z,1.60
2023-05-12T11:12:37.103Z,1.55
2023-05-12T11:15:05.715Z,1.77
2023-05-12T11:17:32.978Z,1.38
2023-05-12T11:20:01.118Z,1.50
2023-05-12T11:22:28.409Z,1.48
2023-05-12T11:24:55.234Z,1.60
2023-05-12T11:27:24.431Z,1.35
2023-05-12T11:30:00.138Z,1.65
2023-05-12T11:32:27.481Z,1.40
2023-05-12T11:34:54.327Z,1.70
2023-05-12T11:37:21.485Z,1.60
2023-05-12T11:39:48.657Z,1.77
2023-05-12T11:42:17.755Z,1.30
2023-05-12T11:44:49.819Z,1.55
2023-05-12T11:47:19.515Z,1.60
2023-05-12T11:49:49.506Z,1.40
2023-05-12T11:52:17.726Z,1.30
2023-05-12T11:55:00.664Z,1.40
2023-05-12T11:57:38.183Z,1.50
2023-05-12T12:00:07.909Z,1.40
2023-05-12T12:02:39.652Z,1.70
2023-05-12T12:05:18.122Z,1.75
2023-05-12T12:07:45.261Z,1.60
2023-05-12T12:10:18.067Z,1.40
2023-05-12T12:12:45.988Z,1.50
2023-05-12T12:15:13.243Z,1.92
2023-05-12T12:17:40.586Z,2.20
2023-05-12T12:20:08.993Z,1.70
2023-05-12T12:22:36.002Z,1.70
2023-05-12T12:25:03.514Z,1.80
2023-05-12T12:27:30.437Z,1.80
2023-05-12T12:29:57.274Z,1.90
2023-05-12T12:32:25.248Z,1.77
2023-05-12T12:34:52.699Z,1.80
2023-05-12T12:37:19.425Z,2.10
2023-05-12T12:39:47.592Z,1.80
2023-05-12T12:42:15.416Z,2.10
2023-05-12T12:44:42.469Z,2.33
2023-05-12T12:47:09.475Z,2.10
2023-05-12T12:49:36.396Z,2.33
2023-05-12T12:52:03.286Z,2.20
2023-05-12T12:54:30.037Z,2.03
2023-05-12T12:56:56.814Z,2.10
2023-05-12T12:59:23.578Z,2.20
2023-05-12T13:01:50.608Z,1.90
2023-05-12T13:04:22.163Z,2.08
2023-05-12T13:09:16.964Z,1.90
2023-05-12T13:11:45.092Z,2.10
2023-05-12T13:14:11.955Z,1.80
2023-05-12T13:16:38.826Z,2.20
2023-05-12T13:19:05.723Z,2.00
2023-05-12T13:21:33.278Z,1.90
2023-05-12T13:24:00.055Z,1.90
2023-05-12T13:26:26.882Z,1.92
2023-05-12T13:28:53.617Z,1.90
2023-05-12T13:31:20.851Z,1.90
2023-05-12T13:33:47.913Z,2.13
2023-05-12T13:36:14.986Z,1.90
2023-05-12T13:38:42.280Z,2.15
2023-05-12T13:41:09.649Z,1.70
2023-05-12T13:43:36.635Z,1.83
2023-05-12T13:46:03.921Z,1.95
2023-05-12T13:48:32.715Z,1.80
2023-05-12T13:50:59.487Z,1.80
2023-05-12T13:53:26.234Z,1.73
2023-05-12T13:55:52.994Z,2.10
2023-05-12T13:58:19.727Z,2.22
2023-05-12T14:00:47.869Z,2.20
2023-05-12T14:03:14.713Z,2.70
2023-05-12T14:05:41.791Z,2.75
2023-05-12T14:08:08.596Z,2.60
2023-05-12T14:10:35.478Z,3.22
2023-05-12T14:13:02.355Z,2.97
2023-05-12T14:15:44.230Z,2.65
2023-05-12T14:18:14.956Z,2.28
2023-05-12T14:20:42.084Z,3.08
2023-05-12T14:23:08.937Z,2.55
2023-05-12T14:25:35.739Z,2.40
2023-05-12T14:28:03.533Z,2.70
2023-05-12T14:30:30.511Z,2.60
2023-05-12T14:32:57.392Z,2.80
2023-05-12T14:35:27.355Z,2.60
2023-05-12T14:37:54.627Z,2.67
2023-05-12T14:40:21.504Z,2.58
2023-05-12T14:42:48.445Z,2.97
2023-05-12T14:45:15.329Z,2.85
2023-05-12T14:47:42.600Z,2.63
2023-05-12T14:50:10.288Z,2.55
2023-05-12T14:52:39.587Z,2.33
2023-05-12T14:55:12.232Z,2.40
2023-05-12T14:57:40.874Z,2.58
2023-05-12T15:00:11.555Z,2.50
2023-05-12T15:02:39.805Z,2.13
2023-05-12T15:05:08.695Z,2.10
2023-05-12T15:07:35.957Z,2.65
2023-05-12T15:10:03.445Z,2.38
2023-05-12T15:12:30.235Z,2.65
2023-05-12T15:14:57.106Z,2.72
2023-05-12T15:17:23.926Z,2.53
2023-05-12T15:19:50.996Z,2.55
2023-05-12T15:22:17.755Z,2.60
2023-05-12T15:24:44.651Z,2.40
2023-05-12T15:27:11.441Z,2.83
2023-05-12T15:29:39.883Z,2.65
2023-05-12T15:32:07.713Z,2.60
2023-05-12T15:34:37.679Z,2.90
2023-05-12T15:37:04.896Z,2.70
2023-05-12T15:39:31.729Z,2.72
2023-05-12T15:41:59.050Z,2.80
2023-05-12T15:44:25.892Z,3.00
2023-05-12T15:46:52.926Z,2.78
2023-05-12T15:49:19.761Z,2.63
2023-05-12T15:51:46.582Z,2.80
2023-05-12T15:54:13.375Z,2.60
2023-05-12T15:56:40.144Z,2.83
2023-05-12T15:59:07.347Z,2.95
2023-05-12T16:01:34.435Z,2.65
2023-05-12T16:04:01.411Z,2.65
2023-05-12T16:06:28.458Z,2.53
2023-05-12T16:08:55.342Z,2.50
2023-05-12T16:11:22.323Z,2.30
2023-05-12T16:13:52.133Z,2.72
2023-05-12T16:16:19.498Z,2.63
2023-05-12T16:18:46.486Z,2.20
2023-05-12T16:21:13.678Z,2.17
2023-05-12T16:23:40.488Z,2.40
2023-05-12T16:26:07.245Z,2.60
2023-05-12T16:28:34.514Z,1.75
2023-05-12T16:31:03.231Z,2.60
2023-05-12T16:33:30.002Z,2.00
2023-05-12T16:35:57.334Z,2.40
2023-05-12T16:38:24.118Z,2.40
2023-05-12T16:40:50.928Z,2.13
2023-05-12T16:43:17.717Z,2.40
2023-05-12T16:45:44.533Z,2.03
2023-05-12T16:48:11.322Z,2.05
2023-05-12T16:50:38.127Z,1.70
2023-05-12T16:53:04.887Z,1.70
2023-05-12T16:55:31.612Z,1.77
2023-05-12T16:57:58.313Z,1.75
2023-05-12T17:00:30.002Z,1.90
2023-05-12T17:02:56.857Z,1.65
2023-05-12T17:05:24.561Z,1.60
2023-05-12T17:07:51.381Z,1.70
2023-05-12T17:10:18.108Z,1.77
2023-05-12T17:12:44.859Z,1.70
2023-05-12T17:15:11.852Z,1.60
2023-05-12T17:17:38.631Z,1.60
2023-05-12T17:20:06.164Z,1.60
2023-05-12T17:22:34.837Z,1.60
2023-05-12T17:25:03.846Z,1.55
2023-05-12T17:27:30.670Z,1.80
2023-05-12T17:29:59.648Z,1.92
2023-05-12T17:32:27.033Z,1.60
2023-05-12T17:34:53.840Z,2.00
2023-05-12T17:37:20.693Z,2.10
2023-05-12T17:39:47.479Z,1.88
2023-05-12T17:42:14.405Z,2.03
2023-05-12T17:44:41.555Z,2.10
2023-05-12T17:47:08.429Z,2.20
2023-05-12T17:49:35.212Z,2.22
2023-05-12T17:52:02.152Z,2.40
2023-05-12T17:54:28.954Z,2.20
2023-05-12T17:56:55.687Z,2.03
2023-05-12T17:59:22.535Z,2.40
2023-05-12T18:01:49.443Z,2.00
2023-05-12T18:04:16.296Z,2.50
2023-05-12T18:06:43.048Z,2.42
2023-05-12T18:09:10.104Z,2.20
2023-05-12T18:11:36.992Z,2.25
2023-05-12T18:14:05.735Z,2.25
2023-05-12T18:16:33.390Z,2.10
2023-05-12T18:19:00.506Z,2.30
2023-05-12T18:21:30.478Z,2.40
2023-05-12T18:23:57.204Z,2.30
2023-05-12T18:26:24.070Z,2.20
2023-05-12T18:28:50.885Z,2.33
2023-05-12T18:31:19.777Z,2.55
2023-05-12T18:33:50.831Z,2.25
2023-05-12T18:36:18.438Z,2.60
2023-05-12T18:38:45.644Z,2.72
2023-05-12T18:41:12.656Z,2.55
2023-05-12T18:43:41.766Z,2.50
2023-05-12T18:46:08.521Z,2.35
2023-05-12T18:48:35.323Z,2.60
2023-05-12T18:51:02.143Z,2.40
2023-05-12T18:53:28.930Z,2.50
2023-05-12T18:55:55.791Z,2.35
2023-05-12T18:58:22.693Z,2.88
2023-05-12T19:00:49.465Z,2.95
2023-05-12T19:03:16.320Z,2.70
2023-05-12T19:05:44.563Z,2.53
2023-05-12T19:08:12.485Z,2.60
2023-05-12T19:10:40.106Z,3.00
2023-05-12T19:13:07.195Z,3.05
2023-05-12T19:15:34.227Z,2.78
2023-05-12T19:18:01.117Z,2.80
2023-05-12T19:20:28.949Z,2.42
2023-05-12T19:22:55.876Z,2.72
2023-05-12T19:25:22.954Z,2.70
2023-05-12T19:27:50.761Z,3.10
2023-05-12T19:30:18.578Z,3.42
2023-05-12T19:32:45.858Z,2.60
2023-05-12T19:35:14.982Z,3.58
2023-05-12T19:37:41.981Z,3.90
2023-05-12T19:40:09.370Z,3.72
2023-05-12T19:42:37.893Z,3.45
2023-05-12T19:45:05.993Z,3.08
2023-05-12T19:47:33.382Z,3.45
2023-05-12T19:50:00.718Z,3.95
2023-05-12T19:52:30.438Z,3.45
2023-05-12T19:54:57.772Z,3.85
2023-05-12T19:57:24.642Z,3.50
2023-05-12T19:59:51.483Z,4.03
2023-05-12T20:02:18.377Z,3.58
2023-05-12T20:04:45.325Z,3.45
2023-05-12T20:07:13.165Z,3.70
2023-05-12T20:09:40.030Z,4.18
2023-05-12T20:12:08.023Z,4.43
2023-05-12T20:14:36.076Z,3.80
2023-05-12T20:17:07.332Z,3.90
2023-05-12T20:19:34.180Z,4.00
2023-05-12T20:22:01.588Z,3.80
2023-05-12T20:24:28.643Z,3.90
2023-05-12T20:26:55.661Z,3.72
2023-05-12T20:29:22.673Z,3.63
2023-05-12T20:31:50.728Z,4.18
2023-05-12T20:34:20.139Z,4.05
2023-05-12T20:36:46.970Z,4.05
2023-05-12T20:39:15.064Z,3.85
2023-05-12T20:41:43.415Z,3.90
2023-05-12T20:44:10.272Z,4.20
2023-05-12T20:46:38.608Z,4.13
2023-05-12T20:49:06.183Z,3.72
2023-05-12T20:51:33.347Z,3.72
2023-05-12T20:54:00.119Z,4.25
2023-05-12T20:56:27.101Z,3.97
2023-05-12T20:58:54.224Z,3.97
2023-05-12T21:01:20.984Z,4.40
2023-05-12T21:03:48.888Z,4.20
2023-05-12T21:06:15.732Z,4.22
2023-05-12T21:08:42.580Z,4.30
2023-05-12T21:11:16.978Z,4.25
2023-05-12T21:13:45.963Z,4.32
2023-05-12T21:16:12.765Z,4.38
2023-05-12T21:18:39.780Z,4.10
2023-05-12T21:21:06.873Z,4.57
2023-05-12T21:23:34.822Z,4.28
2023-05-12T21:26:01.791Z,4.30
2023-05-12T21:28:28.638Z,4.60
2023-05-12T21:30:55.841Z,4.80
2023-05-12T21:33:22.655Z,4.70
2023-05-12T21:35:52.218Z,4.18
2023-05-12T21:38:20.568Z,4.30
2023-05-12T21:40:56.285Z,3.90
2023-05-12T21:43:23.114Z,4.40
2023-05-12T21:45:50.011Z,4.50
2023-05-12T21:48:17.373Z,4.55
2023-05-12T21:50:44.234Z,4.70
2023-05-12T21:53:11.133Z,4.18
2023-05-12T21:55:37.887Z,3.92
2023-05-12T21:58:04.749Z,4.18
2023-05-12T22:00:31.580Z,4.32
2023-05-12T22:02:58.362Z,4.65
2023-05-12T22:05:25.134Z,4.30
2023-05-12T22:07:51.846Z,4.05
2023-05-12T22:10:18.677Z,4.05
2023-05-12T22:12:46.481Z,4.80
2023-05-12T22:15:13.319Z,4.47
2023-05-12T22:17:40.178Z,4.50
2023-05-12T22:20:09.032Z,4.53
2023-05-12T22:22:36.082Z,4.70
2023-05-12T22:25:04.476Z,5.00
2023-05-12T22:27:31.263Z,5.22
2023-05-12T22:29:58.068Z,5.20
2023-05-12T22:32:24.948Z,6.20
2023-05-12T22:34:55.897Z,5.22
2023-05-12T22:37:22.651Z,5.20
2023-05-12T22:39:49.406Z,5.05
2023-05-12T22:42:16.182Z,4.75
2023-05-12T22:44:42.885Z,5.45
2023-05-12T22:47:09.783Z,5.13
2023-05-12T22:49:36.614Z,5.47
2023-05-12T22:52:03.357Z,4.95
2023-05-12T22:54:30.222Z,5.60
2023-05-12T22:56:57.040Z,5.30
2023-05-12T22:59:23.856Z,5.03
2023-05-12T23:01:50.624Z,4.80
2023-05-12T23:04:17.454Z,5.43
2023-05-12T23:06:44.231Z,5.13
2023-05-12T23:09:11.049Z,5.45
2023-05-12T23:11:37.788Z,6.03
2023-05-12T23:14:04.576Z,6.38
2023-05-12T23:16:31.337Z,6.43
2023-05-12T23:18:58.205Z,6.80
2023-05-12T23:21:24.977Z,6.60
2023-05-12T23:23:52.841Z,7.00
2023-05-12T23:26:19.611Z,6.38
2023-05-12T23:28:46.404Z,7.55
2023-05-12T23:31:13.210Z,7.32
2023-05-12T23:33:40.109Z,7.68
2023-05-12T23:36:07.409Z,6.70
2023-05-12T23:38:34.605Z,6.93
2023-05-12T23:41:01.452Z,6.28
2023-05-12T23:43:28.249Z,5.60
2023-05-12T23:45:55.041Z,6.90
2023-05-12T23:48:21.807Z,6.57
2023-05-12T23:50:48.729Z,7.22
2023-05-12T23:53:15.858Z,6.80
2023-05-12T23:55:42.585Z,7.05
2023-05-12T23:58:10.685Z,6.18
